Terminal Aerodrome Forecast
Issued by NWS

Home | Current Version | Previous Version | Text Only | Print | Product List | Glossary On
Versions: 1 2 3 4 5 6 7 8 9 10 11 12 13 14
000
FTUS41 KPHI 270534
TAFPNE
TAF
KPNE 270534Z 2706/2806 36004KT P6SM BKN050
     FM271500 34011KT P6SM FEW040
     FM272200 33006KT P6SM FEW025=

USA.gov is the U.S. government's official web portal to all federal, state and local government web resources and services.